createdAt,value
2022-10-26T00:01:13.216Z,99.90
2022-10-26T00:03:42.415Z,99.90
2022-10-26T00:06:16.717Z,99.90
2022-10-26T00:08:44.612Z,99.90
2022-10-26T00:11:13.355Z,99.90
2022-10-26T00:13:40.933Z,99.90
2022-10-26T00:16:34.881Z,99.90
2022-10-26T00:19:01.797Z,99.90
2022-10-26T00:21:28.756Z,99.90
2022-10-26T00:23:55.608Z,99.90
2022-10-26T00:26:22.488Z,99.90
2022-10-26T00:28:49.312Z,99.90
2022-10-26T00:31:16.780Z,99.90
2022-10-26T00:33:44.118Z,99.90
2022-10-26T00:36:13.778Z,99.90
2022-10-26T00:38:45.844Z,99.90
2022-10-26T00:41:16.448Z,99.90
2022-10-26T00:43:43.425Z,99.90
2022-10-26T00:46:17.266Z,99.90
2022-10-26T00:48:50.743Z,99.90
2022-10-26T00:51:46.834Z,99.90
2022-10-26T00:54:18.477Z,99.90
2022-10-26T00:56:51.247Z,99.90
2022-10-26T00:59:19.043Z,99.90
2022-10-26T01:01:48.158Z,99.90
2022-10-26T01:04:15.913Z,99.90
2022-10-26T01:06:43.723Z,99.90
2022-10-26T01:09:11.559Z,99.90
2022-10-26T01:11:38.423Z,99.90
2022-10-26T01:14:09.678Z,99.90
2022-10-26T01:17:17.218Z,99.90
2022-10-26T01:20:09.756Z,99.90
2022-10-26T01:22:44.310Z,99.90
2022-10-26T01:25:54.718Z,99.90
2022-10-26T01:28:47.572Z,99.90
2022-10-26T01:31:22.071Z,99.90
2022-10-26T01:34:07.629Z,99.90
2022-10-26T01:36:46.367Z,99.90
2022-10-26T01:39:36.778Z,99.90
2022-10-26T01:42:05.790Z,99.90
2022-10-26T01:44:44.479Z,99.90
2022-10-26T01:47:14.898Z,99.90
2022-10-26T01:49:59.384Z,99.90
2022-10-26T01:52:26.445Z,99.90
2022-10-26T01:55:37.943Z,99.90
2022-10-26T01:58:42.970Z,99.90
2022-10-26T02:01:12.508Z,99.90
2022-10-26T02:04:11.250Z,99.90
2022-10-26T02:07:18.310Z,99.90
2022-10-26T02:10:30.586Z,99.90
2022-10-26T02:13:27.940Z,99.90
2022-10-26T02:16:15.215Z,99.90
2022-10-26T02:18:53.198Z,99.90
2022-10-26T02:21:29.968Z,99.90
2022-10-26T02:23:59.463Z,99.90
2022-10-26T02:26:29.758Z,99.90
2022-10-26T02:29:01.003Z,99.90
2022-10-26T02:31:30.851Z,99.90
2022-10-26T02:34:02.496Z,99.90
2022-10-26T02:36:33.760Z,99.90
2022-10-26T02:39:03.875Z,99.90
2022-10-26T02:41:32.612Z,99.90
2022-10-26T02:44:14.915Z,99.90
2022-10-26T02:46:42.909Z,99.90
2022-10-26T02:49:10.681Z,99.90
2022-10-26T02:54:27.402Z,99.90
2022-10-26T02:57:11.642Z,99.90
2022-10-26T02:59:43.071Z,99.90
2022-10-26T03:02:11.658Z,99.90
2022-10-26T03:04:38.594Z,99.90
2022-10-26T03:07:05.545Z,99.90
2022-10-26T03:09:32.400Z,99.90
2022-10-26T03:11:59.270Z,99.90
2022-10-26T03:14:26.143Z,99.90
2022-10-26T03:16:53.126Z,99.90
2022-10-26T03:19:20.092Z,99.90
2022-10-26T03:21:46.926Z,99.90
2022-10-26T03:24:13.828Z,99.90
2022-10-26T03:26:40.711Z,99.90
2022-10-26T03:29:08.907Z,99.90
2022-10-26T03:31:35.960Z,99.90
2022-10-26T03:34:02.967Z,99.90
2022-10-26T03:36:29.839Z,99.90
2022-10-26T03:38:56.751Z,99.90
2022-10-26T03:41:23.626Z,99.90
2022-10-26T03:43:50.524Z,99.90
2022-10-26T03:46:17.431Z,99.90
2022-10-26T03:48:44.274Z,99.90
2022-10-26T03:51:11.292Z,99.90
2022-10-26T03:53:38.159Z,99.90
2022-10-26T03:56:05.509Z,99.90
2022-10-26T03:58:32.404Z,99.90
2022-10-26T04:00:59.257Z,99.90
2022-10-26T04:03:26.293Z,99.90
2022-10-26T04:05:53.154Z,99.90
2022-10-26T04:08:20.066Z,99.90
2022-10-26T04:10:47.559Z,99.90
2022-10-26T04:13:14.502Z,99.90
2022-10-26T04:15:41.488Z,99.90
2022-10-26T04:18:09.848Z,99.90
2022-10-26T04:20:38.972Z,99.90
2022-10-26T04:23:06.924Z,99.90
2022-10-26T04:25:34.292Z,99.90
2022-10-26T04:28:03.346Z,99.90
2022-10-26T04:30:31.499Z,99.90
2022-10-26T04:32:58.402Z,99.90
2022-10-26T04:35:25.383Z,99.90
2022-10-26T04:37:52.320Z,99.90
2022-10-26T04:40:19.213Z,99.90
2022-10-26T04:42:47.818Z,99.90
2022-10-26T04:45:16.793Z,99.90
2022-10-26T04:47:43.853Z,99.90
2022-10-26T04:50:13.054Z,99.90
2022-10-26T04:52:40.870Z,99.90
2022-10-26T04:55:08.184Z,99.90
2022-10-26T04:57:35.770Z,99.90
2022-10-26T05:00:04.688Z,99.90
2022-10-26T05:02:31.650Z,99.90
2022-10-26T05:04:58.708Z,99.90
2022-10-26T05:07:25.810Z,99.90
2022-10-26T05:09:52.792Z,99.90
2022-10-26T05:12:19.837Z,99.90
2022-10-26T05:14:46.788Z,99.90
2022-10-26T05:17:13.950Z,99.90
2022-10-26T05:19:40.940Z,99.90
2022-10-26T05:22:07.943Z,99.90
2022-10-26T05:24:34.873Z,99.90
2022-10-26T05:27:01.759Z,99.90
2022-10-26T05:29:28.631Z,99.90
2022-10-26T05:31:55.463Z,99.90
2022-10-26T05:34:22.321Z,99.90
2022-10-26T05:36:49.142Z,99.90
2022-10-26T05:39:15.991Z,99.90
2022-10-26T05:41:42.897Z,99.90
2022-10-26T05:44:09.762Z,99.90
2022-10-26T05:46:36.605Z,99.90
2022-10-26T05:49:03.480Z,99.90
2022-10-26T05:51:33.332Z,99.90
2022-10-26T05:54:00.383Z,99.90
2022-10-26T05:56:39.409Z,99.90
2022-10-26T05:59:14.475Z,99.90
2022-10-26T06:01:48.634Z,99.90
2022-10-26T06:04:26.668Z,99.90
2022-10-26T06:06:55.181Z,99.90
2022-10-26T06:09:22.403Z,99.90
2022-10-26T06:14:17.054Z,99.90
2022-10-26T06:17:07.491Z,99.90
2022-10-26T06:20:02.334Z,99.90
2022-10-26T06:22:48.333Z,99.90
2022-10-26T06:25:54.804Z,99.90
2022-10-26T06:29:07.817Z,99.90
2022-10-26T06:31:34.712Z,99.90
2022-10-26T06:34:01.764Z,99.90
2022-10-26T06:36:29.691Z,99.90
2022-10-26T06:39:10.382Z,99.90
2022-10-26T06:41:38.019Z,99.90
2022-10-26T06:44:05.937Z,99.90
2022-10-26T06:46:46.291Z,99.90
2022-10-26T06:49:37.551Z,99.90
2022-10-26T06:52:20.126Z,99.90
2022-10-26T06:54:55.650Z,99.90
2022-10-26T06:57:25.939Z,99.90
2022-10-26T07:00:00.501Z,99.90
2022-10-26T07:02:27.616Z,99.90
2022-10-26T07:04:54.730Z,99.90
2022-10-26T07:07:24.954Z,99.90
2022-10-26T07:09:53.053Z,99.90
2022-10-26T07:12:19.968Z,99.90
2022-10-26T07:14:46.956Z,99.90
2022-10-26T07:17:14.195Z,99.90
2022-10-26T07:19:41.091Z,99.90
2022-10-26T07:22:08.131Z,99.90
2022-10-26T07:24:35.301Z,99.90
2022-10-26T07:27:02.118Z,99.90
2022-10-26T07:29:29.002Z,99.90
2022-10-26T07:31:55.968Z,99.90
2022-10-26T07:34:23.054Z,99.90
2022-10-26T07:36:51.510Z,99.90
2022-10-26T07:39:18.473Z,99.90
2022-10-26T07:41:46.385Z,99.90
2022-10-26T07:44:13.578Z,99.90
2022-10-26T07:46:40.472Z,99.90
2022-10-26T07:49:07.332Z,99.90
2022-10-26T07:51:34.267Z,99.90
2022-10-26T07:54:01.275Z,99.90
2022-10-26T07:56:28.822Z,99.90
2022-10-26T07:58:56.421Z,99.90
2022-10-26T08:01:23.478Z,99.90
2022-10-26T08:03:54.502Z,99.90
2022-10-26T08:06:22.928Z,99.90
2022-10-26T08:08:50.319Z,99.90
2022-10-26T08:11:17.398Z,99.90
2022-10-26T08:13:44.451Z,99.90
2022-10-26T08:16:11.890Z,99.90
2022-10-26T08:18:38.829Z,99.90
2022-10-26T08:21:11.601Z,99.90
2022-10-26T08:23:41.387Z,99.90
2022-10-26T08:26:11.410Z,99.90
2022-10-26T08:44:14.617Z,99.90
2022-10-26T08:46:48.180Z,99.90
2022-10-26T08:49:46.262Z,99.90
2022-10-26T08:52:19.070Z,99.90
2022-10-26T08:54:54.284Z,99.90
2022-10-26T08:57:35.111Z,99.90
2022-10-26T09:00:12.239Z,99.90
2022-10-26T09:02:39.152Z,99.90
2022-10-26T09:05:18.015Z,99.90
2022-10-26T09:08:01.711Z,99.90
2022-10-26T09:10:39.663Z,99.90
2022-10-26T09:13:34.042Z,99.90
2022-10-26T09:16:27.817Z,99.90
2022-10-26T09:19:28.349Z,99.90
2022-10-26T09:22:27.294Z,99.90
2022-10-26T09:24:56.709Z,99.90
2022-10-26T09:27:34.289Z,99.90
2022-10-26T09:30:13.856Z,99.90
2022-10-26T09:32:49.320Z,99.90
2022-10-26T09:35:24.150Z,99.90
2022-10-26T09:38:06.204Z,99.90
2022-10-26T09:41:06.411Z,99.90
2022-10-26T09:43:54.202Z,99.90
2022-10-26T09:46:37.605Z,99.90
2022-10-26T09:49:12.807Z,99.90
2022-10-26T09:51:42.948Z,99.90
2022-10-26T09:54:19.068Z,99.90
2022-10-26T09:56:52.247Z,99.90
2022-10-26T09:59:27.952Z,99.90
2022-10-26T10:01:56.573Z,99.90
2022-10-26T10:04:29.436Z,99.90
2022-10-26T10:07:02.382Z,99.90
2022-10-26T10:09:29.511Z,99.90
2022-10-26T10:12:03.128Z,99.90
2022-10-26T10:14:39.893Z,99.90
2022-10-26T10:17:21.611Z,99.90
2022-10-26T10:19:49.197Z,99.90
2022-10-26T10:22:15.905Z,99.90
2022-10-26T10:24:53.982Z,99.90
2022-10-26T10:27:21.120Z,99.90
2022-10-26T10:29:58.457Z,99.90
2022-10-26T10:32:35.379Z,99.90
2022-10-26T10:35:24.406Z,99.90
2022-10-26T10:37:52.319Z,99.90
2022-10-26T10:40:28.084Z,99.90
2022-10-26T10:43:15.803Z,99.90
2022-10-26T10:45:49.337Z,99.90
2022-10-26T10:48:28.639Z,99.90
2022-10-26T10:51:12.329Z,99.90
2022-10-26T10:53:49.339Z,99.90
2022-10-26T10:56:37.317Z,99.90
2022-10-26T10:59:28.799Z,99.90
2022-10-26T11:02:51.018Z,99.90
2022-10-26T11:05:33.681Z,99.90
2022-10-26T11:08:26.206Z,99.90
2022-10-26T11:11:33.419Z,99.90
2022-10-26T11:14:11.091Z,99.90
2022-10-26T11:16:46.697Z,99.90
2022-10-26T11:20:05.094Z,99.90
2022-10-26T11:22:52.500Z,99.90
2022-10-26T11:25:31.182Z,99.90
2022-10-26T11:28:18.782Z,99.90
2022-10-26T11:31:00.347Z,99.90
2022-10-26T11:33:39.391Z,99.90
2022-10-26T11:36:18.464Z,99.90
2022-10-26T11:39:14.942Z,99.70
2022-10-26T11:42:08.557Z,99.00
2022-10-26T11:45:19.968Z,98.90
2022-10-26T11:48:14.912Z,98.50
2022-10-26T11:50:53.530Z,98.80
2022-10-26T11:53:43.082Z,98.90
2022-10-26T11:56:46.513Z,99.30
2022-10-26T11:59:23.151Z,99.50
2022-10-26T12:01:54.129Z,99.90
2022-10-26T12:04:24.685Z,99.90
2022-10-26T12:06:53.690Z,99.90
2022-10-26T12:09:37.151Z,99.90
2022-10-26T12:12:14.807Z,99.90
2022-10-26T12:14:56.548Z,99.90
2022-10-26T12:17:54.717Z,99.90
2022-10-26T12:20:39.510Z,99.90
2022-10-26T12:23:11.197Z,99.90
2022-10-26T12:25:40.667Z,99.90
2022-10-26T12:28:40.883Z,99.90
2022-10-26T12:31:33.072Z,99.90
2022-10-26T12:34:00.672Z,99.90
2022-10-26T12:36:55.672Z,99.90
2022-10-26T12:39:42.645Z,99.90
2022-10-26T12:42:11.030Z,99.90
2022-10-26T12:44:45.770Z,99.90
2022-10-26T12:47:27.849Z,99.90
2022-10-26T12:50:06.862Z,99.90
2022-10-26T12:52:57.780Z,99.90
2022-10-26T12:55:50.353Z,99.90
2022-10-26T12:58:53.758Z,99.90
2022-10-26T13:01:43.999Z,99.90
2022-10-26T13:04:30.984Z,99.90
2022-10-26T13:07:25.157Z,99.90
2022-10-26T13:10:24.724Z,99.90
2022-10-26T13:12:56.785Z,99.90
2022-10-26T13:15:39.940Z,99.90
2022-10-26T13:18:20.839Z,99.90
2022-10-26T13:21:09.010Z,99.90
2022-10-26T13:23:42.009Z,99.90
2022-10-26T13:26:16.105Z,99.90
2022-10-26T13:29:03.777Z,99.90
2022-10-26T13:31:33.264Z,99.90
2022-10-26T13:34:21.308Z,99.90
2022-10-26T13:37:16.115Z,99.90
2022-10-26T13:39:46.025Z,99.90
2022-10-26T13:42:20.534Z,99.90
2022-10-26T13:45:12.529Z,99.90
2022-10-26T13:48:06.218Z,99.90
2022-10-26T13:50:40.924Z,99.90
2022-10-26T13:53:20.619Z,99.90
2022-10-26T13:56:01.187Z,99.90
2022-10-26T13:58:40.659Z,99.90
2022-10-26T14:01:11.446Z,99.90
2022-10-26T14:03:39.551Z,99.90
2022-10-26T14:06:29.155Z,99.90
2022-10-26T14:09:03.906Z,99.90
2022-10-26T14:11:58.176Z,99.90
2022-10-26T14:14:37.577Z,99.90
2022-10-26T14:17:05.727Z,99.90
2022-10-26T14:19:38.454Z,99.90
2022-10-26T14:22:05.723Z,99.90
2022-10-26T14:24:46.799Z,99.90
2022-10-26T14:27:25.387Z,99.90
2022-10-26T14:30:20.892Z,99.90
2022-10-26T14:32:42.754Z,99.90
2022-10-26T14:35:14.318Z,99.90
2022-10-26T14:37:52.965Z,99.90
2022-10-26T14:40:24.343Z,99.90
2022-10-26T14:42:58.454Z,99.90
2022-10-26T14:45:48.064Z,99.90
2022-10-26T14:48:43.673Z,99.90
2022-10-26T14:51:25.603Z,99.90
2022-10-26T14:53:58.496Z,99.90
2022-10-26T14:56:31.962Z,99.90
2022-10-26T14:58:59.271Z,99.90
2022-10-26T15:01:31.834Z,99.90
2022-10-26T15:04:26.495Z,99.90
2022-10-26T15:06:53.423Z,99.90
2022-10-26T15:09:43.683Z,99.90
2022-10-26T15:12:33.531Z,99.90
2022-10-26T15:15:17.562Z,99.90
2022-10-26T15:18:05.109Z,99.90
2022-10-26T15:20:32.149Z,99.90
2022-10-26T15:23:01.872Z,99.90
2022-10-26T15:25:33.336Z,99.90
2022-10-26T15:28:43.240Z,99.90
2022-10-26T15:31:14.645Z,99.90
2022-10-26T15:33:51.894Z,99.90
2022-10-26T15:36:22.002Z,99.90
2022-10-26T15:38:49.300Z,99.90
2022-10-26T15:41:31.094Z,99.90
2022-10-26T15:44:01.437Z,99.90
2022-10-26T15:46:34.794Z,99.90
2022-10-26T15:49:04.497Z,99.90
2022-10-26T15:51:31.808Z,99.90
2022-10-26T15:54:02.256Z,99.90
2022-10-26T15:56:30.659Z,99.90
2022-10-26T15:58:57.952Z,99.90
2022-10-26T16:01:29.564Z,99.90
2022-10-26T16:03:56.529Z,99.90
2022-10-26T16:06:27.280Z,99.90
2022-10-26T16:08:57.819Z,99.90
2022-10-26T16:11:25.071Z,99.90
2022-10-26T16:13:51.975Z,99.90
2022-10-26T16:16:20.708Z,99.90
2022-10-26T16:18:58.046Z,99.90
2022-10-26T16:21:33.233Z,99.90
2022-10-26T16:24:00.169Z,99.90
2022-10-26T16:26:27.243Z,99.90
2022-10-26T16:28:54.223Z,99.90
2022-10-26T16:31:21.891Z,99.90
2022-10-26T16:33:48.894Z,99.90
2022-10-26T16:36:16.196Z,99.90
2022-10-26T16:38:43.239Z,99.90
2022-10-26T16:41:13.407Z,99.90
2022-10-26T16:43:42.848Z,99.90
2022-10-26T16:46:14.020Z,99.90
2022-10-26T16:48:43.276Z,99.90
2022-10-26T16:51:13.893Z,99.90
2022-10-26T16:53:41.288Z,99.90
2022-10-26T16:56:14.837Z,99.90
2022-10-26T16:58:42.051Z,99.90
2022-10-26T17:01:10.794Z,99.90
2022-10-26T17:03:37.735Z,99.90
2022-10-26T17:06:07.514Z,99.90
2022-10-26T17:08:36.017Z,99.90
2022-10-26T17:11:07.358Z,99.90
2022-10-26T17:13:36.064Z,99.90
2022-10-26T17:16:15.949Z,99.90
2022-10-26T17:18:43.715Z,99.90
2022-10-26T17:21:12.551Z,99.90
2022-10-26T17:23:39.797Z,99.90
2022-10-26T17:26:09.855Z,99.90
2022-10-26T17:28:37.282Z,99.90
2022-10-26T17:31:11.756Z,99.90
2022-10-26T17:33:42.058Z,99.90
2022-10-26T17:36:11.785Z,99.90
2022-10-26T17:38:41.730Z,99.90
2022-10-26T17:41:14.303Z,99.90
2022-10-26T17:43:42.978Z,99.90
2022-10-26T17:46:23.820Z,99.90
2022-10-26T17:48:59.130Z,99.90
2022-10-26T17:51:28.773Z,99.90
2022-10-26T17:53:57.156Z,99.90
2022-10-26T17:56:29.683Z,99.90
2022-10-26T17:59:00.034Z,99.90
2022-10-26T18:01:28.212Z,99.90
2022-10-26T18:03:55.526Z,99.90
2022-10-26T18:06:23.458Z,99.90
2022-10-26T18:08:50.874Z,99.90
2022-10-26T18:11:26.150Z,99.90
2022-10-26T18:13:55.575Z,99.90
2022-10-26T18:16:24.726Z,99.90
2022-10-26T18:19:10.373Z,99.90
2022-10-26T18:21:37.636Z,99.90
2022-10-26T18:24:06.492Z,99.90
2022-10-26T18:26:34.001Z,99.90
2022-10-26T18:29:03.342Z,99.90
2022-10-26T18:31:31.892Z,99.90
2022-10-26T18:34:01.591Z,99.90
2022-10-26T18:36:29.733Z,99.90
2022-10-26T18:38:56.820Z,99.90
2022-10-26T18:41:25.414Z,99.90
2022-10-26T18:43:59.636Z,99.90
2022-10-26T18:46:30.312Z,99.90
2022-10-26T18:49:00.642Z,99.90
2022-10-26T18:51:32.603Z,99.90
2022-10-26T18:54:00.459Z,99.90
2022-10-26T18:56:27.636Z,99.90
2022-10-26T18:59:00.805Z,99.90
2022-10-26T19:01:33.927Z,99.90
2022-10-26T19:04:03.395Z,99.90
2022-10-26T19:06:33.433Z,99.90
2022-10-26T19:09:00.733Z,99.90
2022-10-26T19:11:30.033Z,99.90
2022-10-26T19:13:57.986Z,99.90
2022-10-26T19:16:45.167Z,99.90
2022-10-26T19:19:13.613Z,99.90
2022-10-26T19:21:40.527Z,99.90
2022-10-26T19:24:27.031Z,99.90
2022-10-26T19:26:54.418Z,99.90
2022-10-26T19:29:21.593Z,99.90
2022-10-26T19:31:52.010Z,99.90
2022-10-26T19:34:19.311Z,99.90
2022-10-26T19:36:47.039Z,99.90
2022-10-26T19:39:16.578Z,99.90
2022-10-26T19:41:44.635Z,99.90
2022-10-26T19:44:12.578Z,99.90
2022-10-26T19:46:39.807Z,99.90
2022-10-26T19:49:07.507Z,99.90
2022-10-26T19:51:34.723Z,99.90
2022-10-26T19:54:07.097Z,99.90
2022-10-26T19:56:36.019Z,99.90
2022-10-26T19:59:03.811Z,99.90
2022-10-26T20:01:30.810Z,99.90
2022-10-26T20:03:57.801Z,99.90
2022-10-26T20:06:24.765Z,99.90
2022-10-26T20:08:51.686Z,99.90
2022-10-26T20:11:19.676Z,99.90
2022-10-26T20:13:48.408Z,99.90
2022-10-26T20:16:17.387Z,99.90
2022-10-26T20:18:47.837Z,99.90
2022-10-26T20:21:17.147Z,99.90
2022-10-26T20:23:45.063Z,99.90
2022-10-26T20:26:18.928Z,99.90
2022-10-26T20:28:51.430Z,99.90
2022-10-26T20:31:19.447Z,99.90
2022-10-26T20:33:52.817Z,99.90
2022-10-26T20:36:21.922Z,99.90
2022-10-26T20:38:49.443Z,99.90
2022-10-26T20:41:16.834Z,99.90
2022-10-26T20:43:44.326Z,99.90
2022-10-26T20:46:17.674Z,99.90
2022-10-26T20:48:45.009Z,99.90
2022-10-26T20:51:23.874Z,99.90
2022-10-26T20:54:13.743Z,99.90
2022-10-26T20:56:42.267Z,99.90
2022-10-26T20:59:41.888Z,99.90
2022-10-26T21:02:10.513Z,99.90
2022-10-26T21:04:37.480Z,99.90
2022-10-26T21:07:04.466Z,99.90
2022-10-26T21:09:34.200Z,99.90
2022-10-26T21:12:04.015Z,99.90
2022-10-26T21:14:31.023Z,99.90
2022-10-26T21:16:57.887Z,99.90
2022-10-26T21:19:24.723Z,99.90
2022-10-26T21:21:51.609Z,99.90
2022-10-26T21:24:18.483Z,99.90
2022-10-26T21:26:45.534Z,99.90
2022-10-26T21:29:12.631Z,99.90
2022-10-26T21:31:39.598Z,99.90
2022-10-26T21:34:06.627Z,99.90
2022-10-26T21:36:33.578Z,99.90
2022-10-26T21:39:00.537Z,99.90
2022-10-26T21:41:27.479Z,99.90
2022-10-26T21:44:03.475Z,99.90
2022-10-26T21:46:38.166Z,99.90
2022-10-26T21:49:05.869Z,99.90
2022-10-26T21:51:33.037Z,99.90
2022-10-26T21:53:59.972Z,99.90
2022-10-26T21:56:26.934Z,99.90
2022-10-26T21:58:53.868Z,99.90
2022-10-26T22:01:22.832Z,99.90
2022-10-26T22:03:50.142Z,99.90
2022-10-26T22:08:47.290Z,99.90
2022-10-26T22:11:21.406Z,99.90
2022-10-26T22:13:50.422Z,99.90
2022-10-26T22:16:24.761Z,99.90
2022-10-26T22:18:54.968Z,99.90
2022-10-26T22:21:25.606Z,99.90
2022-10-26T22:23:52.949Z,99.90
2022-10-26T22:26:25.037Z,99.90
2022-10-26T22:28:55.743Z,99.90
2022-10-26T22:31:25.542Z,99.90
2022-10-26T22:34:04.787Z,99.90
2022-10-26T22:36:34.994Z,99.90
2022-10-26T22:39:02.027Z,99.90
2022-10-26T22:41:29.031Z,99.90
2022-10-26T22:43:55.959Z,99.90
2022-10-26T22:46:28.362Z,99.90
2022-10-26T22:48:58.246Z,99.90
2022-10-26T22:51:28.572Z,99.90
2022-10-26T22:53:57.573Z,99.90
2022-10-26T22:58:54.227Z,99.90
2022-10-26T23:01:24.962Z,99.90
2022-10-26T23:03:53.642Z,99.90
2022-10-26T23:06:21.203Z,99.90
2022-10-26T23:08:48.103Z,99.90
2022-10-26T23:11:18.504Z,99.90
2022-10-26T23:13:45.423Z,99.90
2022-10-26T23:16:16.194Z,99.90
2022-10-26T23:18:43.127Z,99.90
2022-10-26T23:21:11.872Z,99.90
2022-10-26T23:23:39.280Z,99.90
2022-10-26T23:26:09.844Z,99.90
2022-10-26T23:28:36.879Z,99.90
2022-10-26T23:31:04.554Z,99.90
2022-10-26T23:33:32.675Z,99.90
2022-10-26T23:35:59.723Z,99.90
2022-10-26T23:38:26.758Z,99.90
2022-10-26T23:40:57.324Z,99.90
2022-10-26T23:43:25.543Z,99.90
2022-10-26T23:45:53.269Z,99.90
2022-10-26T23:48:20.763Z,99.90
2022-10-26T23:50:50.140Z,99.90
2022-10-26T23:53:21.116Z,99.90
2022-10-26T23:55:48.777Z,99.90
2022-10-26T23:58:17.716Z,99.90
